createdAt,value
2022-10-20T00:01:12.699Z,12.27
2022-10-20T00:03:39.548Z,12.23
2022-10-20T00:06:21.839Z,12.02
2022-10-20T00:08:49.413Z,12.90
2022-10-20T00:11:18.790Z,11.43
2022-10-20T00:13:47.660Z,11.88
2022-10-20T00:16:14.929Z,12.25
2022-10-20T00:18:42.017Z,11.50
2022-10-20T00:21:14.393Z,11.63
2022-10-20T00:23:41.457Z,11.45
2022-10-20T00:26:12.230Z,12.25
2022-10-20T00:28:39.213Z,11.65
2022-10-20T00:31:06.453Z,12.32
2022-10-20T00:33:34.045Z,11.68
2022-10-20T00:36:01.897Z,11.98
2022-10-20T00:38:28.729Z,11.30
2022-10-20T00:40:55.745Z,11.15
2022-10-20T00:43:22.867Z,11.88
2022-10-20T00:45:57.636Z,12.00
2022-10-20T00:48:30.270Z,11.15
2022-10-20T00:50:57.548Z,11.70
2022-10-20T00:53:27.221Z,12.05
2022-10-20T00:55:56.636Z,11.32
2022-10-20T00:58:24.174Z,11.88
2022-10-20T01:00:55.937Z,12.60
2022-10-20T01:03:35.492Z,11.60
2022-10-20T01:06:03.092Z,12.15
2022-10-20T01:08:29.871Z,12.13
2022-10-20T01:11:27.416Z,12.25
2022-10-20T01:14:05.955Z,12.75
2022-10-20T01:16:35.360Z,13.23
2022-10-20T01:19:25.736Z,12.52
2022-10-20T01:21:55.250Z,12.68
2022-10-20T01:25:14.349Z,12.85
2022-10-20T01:28:02.646Z,12.50
2022-10-20T01:30:30.241Z,12.80
2022-10-20T01:33:13.283Z,12.13
2022-10-20T01:35:55.043Z,12.65
2022-10-20T01:38:21.714Z,12.98
2022-10-20T01:41:24.306Z,12.07
2022-10-20T01:43:52.273Z,12.70
2022-10-20T01:46:23.783Z,12.35
2022-10-20T01:48:50.922Z,12.25
2022-10-20T01:51:17.722Z,12.68
2022-10-20T01:53:44.402Z,12.05
2022-10-20T01:56:26.217Z,12.25
2022-10-20T01:59:14.369Z,12.98
2022-10-20T02:02:18.893Z,12.10
2022-10-20T02:05:09.107Z,12.80
2022-10-20T02:07:36.044Z,12.43
2022-10-20T02:10:12.896Z,11.70
2022-10-20T02:12:42.115Z,13.25
2022-10-20T02:15:12.507Z,12.10
2022-10-20T02:17:41.957Z,12.23
2022-10-20T02:20:10.615Z,11.20
2022-10-20T02:22:39.840Z,11.98
2022-10-20T02:25:10.068Z,13.20
2022-10-20T02:27:39.400Z,11.90
2022-10-20T02:30:10.573Z,12.93
2022-10-20T02:32:40.723Z,12.38
2022-10-20T02:35:11.370Z,13.80
2022-10-20T02:37:38.267Z,11.60
2022-10-20T02:40:05.697Z,12.23
2022-10-20T02:42:32.410Z,12.50
2022-10-20T02:44:59.052Z,12.65
2022-10-20T02:47:25.688Z,11.55
2022-10-20T02:49:52.501Z,12.68
2022-10-20T02:52:19.155Z,12.20
2022-10-20T02:54:46.062Z,11.93
2022-10-20T02:57:12.824Z,12.38
2022-10-20T02:59:39.521Z,12.63
2022-10-20T03:02:06.321Z,11.80
2022-10-20T03:04:33.071Z,11.85
2022-10-20T03:06:59.914Z,11.65
2022-10-20T03:09:26.766Z,11.93
2022-10-20T03:11:53.717Z,12.43
2022-10-20T03:14:20.471Z,11.25
2022-10-20T03:16:47.364Z,12.40
2022-10-20T03:19:14.220Z,12.60
2022-10-20T03:21:40.963Z,11.38
2022-10-20T03:24:07.765Z,11.70
2022-10-20T03:26:34.545Z,11.45
2022-10-20T03:29:01.274Z,12.05
2022-10-20T03:31:28.057Z,12.48
2022-10-20T03:33:54.755Z,11.52
2022-10-20T03:36:21.688Z,11.48
2022-10-20T03:38:48.538Z,12.10
2022-10-20T03:41:15.284Z,11.63
2022-10-20T03:43:42.457Z,12.43
2022-10-20T03:46:11.429Z,11.85
2022-10-20T03:48:39.295Z,11.25
2022-10-20T03:51:07.261Z,11.82
2022-10-20T03:53:34.029Z,11.93
2022-10-20T03:56:09.365Z,11.77
2022-10-20T03:58:36.532Z,11.75
2022-10-20T04:01:04.261Z,11.85
2022-10-20T04:03:30.932Z,11.60
2022-10-20T04:05:57.609Z,11.48
2022-10-20T04:08:24.287Z,11.63
2022-10-20T04:10:50.960Z,11.20
2022-10-20T04:13:17.724Z,11.05
2022-10-20T04:15:44.484Z,10.82
2022-10-20T04:18:11.227Z,11.60
2022-10-20T04:20:39.412Z,12.05
2022-10-20T04:23:08.906Z,12.43
2022-10-20T04:25:35.852Z,11.98
2022-10-20T04:28:02.548Z,12.00
2022-10-20T04:30:29.218Z,11.80
2022-10-20T04:32:55.904Z,11.07
2022-10-20T04:35:22.581Z,9.75
2022-10-20T04:37:49.258Z,10.63
2022-10-20T04:40:16.055Z,12.40
2022-10-20T04:42:42.769Z,11.57
2022-10-20T04:45:09.986Z,11.75
2022-10-20T04:47:37.940Z,13.23
2022-10-20T04:50:05.959Z,12.48
2022-10-20T04:52:32.750Z,11.98
2022-10-20T04:54:59.461Z,14.95
2022-10-20T04:57:26.935Z,12.75
2022-10-20T04:59:53.736Z,13.82
2022-10-20T05:02:20.577Z,14.35
2022-10-20T05:04:47.298Z,11.18
2022-10-20T05:07:14.104Z,12.85
2022-10-20T05:09:40.874Z,11.27
2022-10-20T05:12:08.039Z,14.90
2022-10-20T05:14:34.739Z,13.07
2022-10-20T05:17:03.233Z,13.10
2022-10-20T05:19:32.191Z,11.70
2022-10-20T05:21:59.341Z,11.30
2022-10-20T05:24:29.882Z,11.95
2022-10-20T05:26:56.880Z,11.43
2022-10-20T05:29:24.534Z,11.40
2022-10-20T05:31:51.329Z,10.65
2022-10-20T05:34:18.015Z,11.02
2022-10-20T05:36:44.678Z,11.52
2022-10-20T05:39:12.009Z,10.48
2022-10-20T05:41:39.377Z,11.32
2022-10-20T05:44:08.938Z,10.82
2022-10-20T05:46:41.576Z,10.77
2022-10-20T05:49:13.952Z,11.55
2022-10-20T05:51:40.930Z,11.75
2022-10-20T05:54:07.700Z,10.25
2022-10-20T05:56:34.488Z,11.18
2022-10-20T05:59:01.154Z,11.65
2022-10-20T06:01:39.414Z,14.65
2022-10-20T06:04:08.675Z,15.38
2022-10-20T06:06:36.188Z,12.98
2022-10-20T06:09:06.951Z,12.00
2022-10-20T06:11:38.364Z,12.63
2022-10-20T06:14:06.272Z,11.48
2022-10-20T06:16:33.001Z,11.65
2022-10-20T06:19:00.042Z,11.82
2022-10-20T06:21:29.811Z,12.95
2022-10-20T06:23:59.497Z,12.85
2022-10-20T06:26:33.087Z,11.77
2022-10-20T06:29:04.386Z,11.38
2022-10-20T06:31:34.309Z,12.30
2022-10-20T06:34:01.627Z,12.27
2022-10-20T06:36:28.734Z,11.25
2022-10-20T06:38:59.419Z,12.18
2022-10-20T06:41:27.122Z,11.77
2022-10-20T06:43:58.561Z,12.10
2022-10-20T06:46:29.886Z,12.95
2022-10-20T06:48:58.735Z,13.45
2022-10-20T06:51:26.214Z,12.23
2022-10-20T06:53:53.046Z,15.07
2022-10-20T06:56:22.954Z,14.77
2022-10-20T06:58:54.841Z,13.45
2022-10-20T07:01:33.511Z,13.95
2022-10-20T07:04:03.249Z,13.45
2022-10-20T07:06:33.122Z,12.23
2022-10-20T07:09:01.114Z,12.20
2022-10-20T07:11:29.619Z,11.18
2022-10-20T07:13:58.613Z,12.45
2022-10-20T07:16:27.901Z,11.55
2022-10-20T07:18:55.567Z,12.85
2022-10-20T07:21:24.618Z,13.85
2022-10-20T07:23:51.618Z,18.63
2022-10-20T07:26:24.704Z,12.13
2022-10-20T07:28:55.923Z,10.45
2022-10-20T07:31:24.302Z,12.70
2022-10-20T07:34:06.779Z,12.63
2022-10-20T07:36:41.507Z,11.63
2022-10-20T07:39:08.325Z,11.80
2022-10-20T07:41:37.507Z,12.30
2022-10-20T07:44:04.857Z,11.02
2022-10-20T07:46:31.727Z,11.02
2022-10-20T07:49:11.463Z,11.70
2022-10-20T07:51:45.559Z,11.98
2022-10-20T07:54:12.360Z,10.25
2022-10-20T07:56:43.090Z,10.35
2022-10-20T07:59:13.473Z,10.38
2022-10-20T08:01:40.620Z,10.63
2022-10-20T08:04:07.511Z,10.10
2022-10-20T08:06:34.381Z,10.60
2022-10-20T08:09:01.404Z,10.40
2022-10-20T08:11:28.740Z,9.02
2022-10-20T08:13:55.689Z,9.70
2022-10-20T08:16:23.493Z,9.65
2022-10-20T08:18:54.231Z,9.68
2022-10-20T08:21:22.806Z,9.77
2022-10-20T08:23:50.493Z,9.57
2022-10-20T08:26:25.313Z,9.50
2022-10-20T08:28:54.172Z,9.13
2022-10-20T08:31:22.537Z,9.48
2022-10-20T08:33:52.593Z,8.43
2022-10-20T08:36:19.685Z,7.95
2022-10-20T08:38:46.447Z,9.18
2022-10-20T08:41:20.403Z,9.15
2022-10-20T08:43:50.508Z,9.82
2022-10-20T08:46:20.942Z,8.25
2022-10-20T08:48:48.821Z,8.52
2022-10-20T08:51:40.468Z,9.63
2022-10-20T08:54:13.180Z,8.43
2022-10-20T08:56:39.978Z,8.60
2022-10-20T08:59:33.494Z,9.55
2022-10-20T09:02:01.203Z,8.40
2022-10-20T09:04:54.694Z,8.55
2022-10-20T09:07:26.287Z,9.10
2022-10-20T09:09:57.947Z,8.60
2022-10-20T09:12:30.196Z,8.75
2022-10-20T09:14:58.243Z,8.48
2022-10-20T09:17:25.188Z,8.77
2022-10-20T09:19:59.219Z,8.45
2022-10-20T09:22:33.317Z,8.55
2022-10-20T09:25:02.527Z,9.48
2022-10-20T09:27:29.238Z,9.20
2022-10-20T09:29:56.013Z,9.05
2022-10-20T09:32:46.510Z,8.90
2022-10-20T09:35:24.501Z,8.65
2022-10-20T09:38:13.051Z,8.98
2022-10-20T09:41:18.134Z,8.52
2022-10-20T09:43:58.067Z,9.38
2022-10-20T09:46:29.650Z,8.73
2022-10-20T09:48:56.991Z,10.80
2022-10-20T09:51:26.726Z,9.57
2022-10-20T09:53:53.448Z,9.48
2022-10-20T09:56:29.186Z,9.50
2022-10-20T09:58:57.467Z,8.82
2022-10-20T10:01:24.583Z,8.60
2022-10-20T10:03:59.793Z,8.48
2022-10-20T10:06:43.455Z,9.02
2022-10-20T10:09:34.711Z,8.90
2022-10-20T10:12:03.823Z,8.70
2022-10-20T10:14:35.602Z,8.18
2022-10-20T10:17:02.602Z,9.52
2022-10-20T10:19:33.987Z,9.45
2022-10-20T10:22:02.961Z,10.73
2022-10-20T10:24:39.682Z,9.38
2022-10-20T10:27:19.421Z,9.20
2022-10-20T10:29:46.742Z,10.13
2022-10-20T10:32:18.211Z,10.35
2022-10-20T10:34:51.187Z,9.43
2022-10-20T10:39:51.259Z,10.27
2022-10-20T10:42:36.772Z,10.30
2022-10-20T10:45:20.144Z,9.95
2022-10-20T10:48:09.020Z,9.50
2022-10-20T10:50:38.872Z,10.20
2022-10-20T10:53:17.824Z,9.70
2022-10-20T10:55:53.376Z,10.15
2022-10-20T10:58:32.912Z,12.05
2022-10-20T11:01:05.819Z,9.32
2022-10-20T11:03:45.582Z,9.98
2022-10-20T11:06:25.715Z,10.38
2022-10-20T11:09:11.613Z,9.65
2022-10-20T11:11:45.970Z,9.25
2022-10-20T11:14:34.240Z,9.68
2022-10-20T11:17:01.062Z,9.52
2022-10-20T11:19:52.821Z,10.10
2022-10-20T11:22:34.574Z,9.48
2022-10-20T11:25:33.127Z,9.52
2022-10-20T11:28:00.473Z,9.50
2022-10-20T11:30:28.948Z,10.27
2022-10-20T11:33:05.849Z,9.60
2022-10-20T11:35:53.929Z,10.30
2022-10-20T11:38:41.912Z,11.23
2022-10-20T11:41:17.785Z,10.15
2022-10-20T11:43:57.269Z,9.13
2022-10-20T11:46:46.888Z,9.95
2022-10-20T11:49:13.749Z,9.57
2022-10-20T11:52:14.589Z,10.05
2022-10-20T11:54:59.830Z,10.25
2022-10-20T11:58:04.351Z,9.70
2022-10-20T12:00:59.824Z,10.07
2022-10-20T12:03:36.681Z,11.27
2022-10-20T12:06:27.069Z,10.32
2022-10-20T12:08:56.797Z,9.70
2022-10-20T12:11:51.650Z,10.00
2022-10-20T12:14:41.475Z,10.70
2022-10-20T12:17:43.406Z,10.15
2022-10-20T12:20:41.625Z,10.45
2022-10-20T12:23:43.991Z,12.45
2022-10-20T12:27:01.271Z,11.02
2022-10-20T12:29:30.772Z,10.98
2022-10-20T12:32:24.445Z,15.05
2022-10-20T12:35:00.970Z,11.88
2022-10-20T12:37:36.721Z,11.32
2022-10-20T12:40:06.697Z,11.05
2022-10-20T12:42:42.669Z,11.63
2022-10-20T12:45:37.634Z,11.00
2022-10-20T12:48:06.751Z,12.00
2022-10-20T12:50:37.902Z,12.85
2022-10-20T12:53:26.673Z,12.40
2022-10-20T12:56:01.322Z,12.23
2022-10-20T12:58:58.834Z,12.85
2022-10-20T13:01:28.258Z,11.88
2022-10-20T13:03:55.056Z,13.10
2022-10-20T13:06:27.442Z,12.52
2022-10-20T13:09:03.542Z,12.77
2022-10-20T13:11:39.552Z,11.80
2022-10-20T13:14:14.228Z,12.20
2022-10-20T13:16:43.757Z,16.08
2022-10-20T13:19:18.316Z,12.52
2022-10-20T13:21:49.478Z,12.85
2022-10-20T13:24:40.554Z,11.73
2022-10-20T13:27:11.813Z,13.85
2022-10-20T13:29:43.603Z,11.88
2022-10-20T13:32:43.357Z,13.50
2022-10-20T13:35:37.017Z,12.00
2022-10-20T13:38:17.727Z,12.85
2022-10-20T13:40:56.889Z,11.38
2022-10-20T13:43:56.635Z,12.23
2022-10-20T13:49:28.206Z,12.32
2022-10-20T13:52:01.132Z,12.02
2022-10-20T13:54:31.521Z,11.27
2022-10-20T13:56:58.929Z,12.65
2022-10-20T13:59:28.626Z,11.68
2022-10-20T14:02:01.323Z,12.35
2022-10-20T14:04:36.665Z,12.60
2022-10-20T14:07:13.103Z,11.40
2022-10-20T14:09:45.366Z,12.05
2022-10-20T14:12:26.205Z,11.70
2022-10-20T14:15:01.413Z,11.63
2022-10-20T14:17:30.491Z,10.90
2022-10-20T14:20:30.617Z,11.10
2022-10-20T14:22:59.976Z,10.43
2022-10-20T14:25:27.853Z,12.50
2022-10-20T14:27:56.388Z,11.00
2022-10-20T14:30:24.252Z,10.48
2022-10-20T14:32:51.525Z,11.50
2022-10-20T14:35:37.272Z,11.98
2022-10-20T14:38:14.747Z,10.63
2022-10-20T14:40:41.763Z,10.73
2022-10-20T14:43:40.340Z,9.90
2022-10-20T14:46:25.745Z,9.85
2022-10-20T14:48:52.475Z,10.07
2022-10-20T14:51:37.625Z,9.15
2022-10-20T14:54:19.813Z,11.63
2022-10-20T14:57:14.247Z,9.70
2022-10-20T14:59:51.386Z,9.02
2022-10-20T15:02:22.323Z,9.25
2022-10-20T15:04:53.463Z,9.20
2022-10-20T15:07:26.790Z,10.18
2022-10-20T15:10:00.421Z,10.43
2022-10-20T15:12:37.077Z,9.88
2022-10-20T15:15:08.401Z,9.82
2022-10-20T15:17:46.670Z,9.70
2022-10-20T15:20:31.826Z,9.77
2022-10-20T15:22:59.753Z,10.00
2022-10-20T15:25:27.925Z,10.40
2022-10-20T15:27:57.090Z,9.60
2022-10-20T15:30:25.512Z,9.82
2022-10-20T15:32:54.030Z,10.10
2022-10-20T15:35:23.749Z,9.38
2022-10-20T15:37:56.238Z,11.30
2022-10-20T15:40:22.939Z,10.63
2022-10-20T15:42:49.680Z,9.80
2022-10-20T15:45:22.078Z,11.52
2022-10-20T15:47:48.894Z,10.18
2022-10-20T15:50:16.017Z,9.95
2022-10-20T15:52:42.915Z,10.15
2022-10-20T15:55:33.446Z,10.27
2022-10-20T15:58:00.770Z,9.68
2022-10-20T16:00:29.112Z,10.63
2022-10-20T16:02:56.127Z,11.02
2022-10-20T16:05:24.333Z,10.32
2022-10-20T16:07:54.773Z,11.93
2022-10-20T16:10:29.454Z,10.55
2022-10-20T16:12:56.907Z,10.82
2022-10-20T16:15:28.798Z,11.25
2022-10-20T16:17:58.122Z,11.20
2022-10-20T16:20:24.843Z,10.07
2022-10-20T16:22:51.560Z,10.68
2022-10-20T16:25:18.403Z,14.95
2022-10-20T16:27:45.405Z,11.00
2022-10-20T16:30:12.215Z,11.52
2022-10-20T16:32:39.140Z,11.43
2022-10-20T16:35:06.427Z,11.93
2022-10-20T16:37:34.137Z,11.88
2022-10-20T16:40:00.967Z,10.98
2022-10-20T16:42:30.278Z,11.50
2022-10-20T16:44:57.395Z,13.18
2022-10-20T16:47:25.963Z,11.52
2022-10-20T16:49:52.753Z,13.00
2022-10-20T16:52:19.621Z,11.10
2022-10-20T16:54:46.415Z,12.57
2022-10-20T16:57:13.830Z,13.93
2022-10-20T16:59:41.296Z,12.45
2022-10-20T17:02:08.235Z,11.85
2022-10-20T17:04:35.033Z,13.95
2022-10-20T17:07:01.793Z,11.30
2022-10-20T17:09:29.968Z,12.20
2022-10-20T17:11:57.210Z,12.77
2022-10-20T17:14:29.061Z,12.07
2022-10-20T17:16:55.937Z,11.93
2022-10-20T17:19:22.872Z,11.50
2022-10-20T17:21:52.453Z,12.07
2022-10-20T17:24:22.185Z,11.80
2022-10-20T17:26:49.009Z,11.57
2022-10-20T17:29:15.823Z,12.60
2022-10-20T17:31:42.541Z,12.00
2022-10-20T17:34:09.266Z,10.98
2022-10-20T17:36:36.062Z,13.02
2022-10-20T17:39:06.324Z,11.73
2022-10-20T17:41:33.546Z,12.30
2022-10-20T17:44:04.618Z,11.18
2022-10-20T17:46:32.004Z,11.18
2022-10-20T17:49:01.372Z,10.90
2022-10-20T17:51:31.873Z,10.93
2022-10-20T17:54:01.497Z,11.75
2022-10-20T17:56:35.328Z,11.90
2022-10-20T17:59:04.173Z,11.48
2022-10-20T18:01:33.901Z,11.48
2022-10-20T18:04:12.292Z,11.85
2022-10-20T18:06:39.862Z,11.55
2022-10-20T18:09:16.889Z,11.95
2022-10-20T18:11:46.813Z,12.00
2022-10-20T18:14:13.725Z,11.47
2022-10-20T18:16:41.021Z,11.18
2022-10-20T18:19:11.938Z,11.50
2022-10-20T18:21:38.625Z,10.77
2022-10-20T18:24:08.597Z,11.20
2022-10-20T18:26:37.108Z,11.70
2022-10-20T18:29:08.224Z,11.43
2022-10-20T18:31:36.522Z,10.88
2022-10-20T18:34:08.243Z,11.02
2022-10-20T18:36:39.158Z,12.07
2022-10-20T18:39:09.883Z,11.25
2022-10-20T18:41:39.464Z,13.38
2022-10-20T18:44:10.274Z,11.13
2022-10-20T18:49:07.153Z,11.65
2022-10-20T18:51:35.269Z,11.18
2022-10-20T18:54:02.985Z,11.20
2022-10-20T18:56:30.627Z,11.02
2022-10-20T18:58:59.615Z,11.27
2022-10-20T19:01:29.530Z,12.50
2022-10-20T19:03:57.858Z,10.30
2022-10-20T19:06:27.540Z,10.80
2022-10-20T19:08:56.867Z,10.95
2022-10-20T19:11:26.809Z,11.02
2022-10-20T19:13:54.113Z,12.33
2022-10-20T19:16:23.861Z,10.35
2022-10-20T19:18:53.039Z,10.30
2022-10-20T19:24:00.829Z,11.40
2022-10-20T19:26:30.464Z,10.45
2022-10-20T19:29:04.089Z,10.48
2022-10-20T19:31:40.894Z,11.55
2022-10-20T19:34:14.144Z,11.30
2022-10-20T19:36:41.648Z,11.70
2022-10-20T19:39:11.766Z,11.25
2022-10-20T19:41:39.930Z,12.15
2022-10-20T19:44:08.829Z,10.43
2022-10-20T19:46:35.558Z,10.70
2022-10-20T19:49:02.399Z,11.13
2022-10-20T19:51:31.028Z,10.45
2022-10-20T19:53:57.780Z,10.00
2022-10-20T19:56:24.618Z,10.05
2022-10-20T19:58:51.322Z,10.65
2022-10-20T20:01:18.196Z,10.38
2022-10-20T20:03:45.835Z,9.88
2022-10-20T20:06:16.542Z,10.40
2022-10-20T20:08:45.069Z,9.75
2022-10-20T20:11:21.250Z,9.52
2022-10-20T20:13:48.105Z,9.27
2022-10-20T20:16:14.826Z,9.70
2022-10-20T20:18:41.496Z,9.60
2022-10-20T20:21:08.218Z,9.80
2022-10-20T20:23:47.687Z,8.57
2022-10-20T20:26:22.256Z,9.10
2022-10-20T20:28:49.270Z,8.85
2022-10-20T20:31:16.100Z,8.27
2022-10-20T20:33:42.801Z,9.30
2022-10-20T20:36:10.095Z,8.73
2022-10-20T20:38:38.676Z,8.50
2022-10-20T20:41:10.188Z,7.90
2022-10-20T20:43:37.643Z,8.43
2022-10-20T20:46:12.026Z,7.63
2022-10-20T20:48:39.241Z,7.45
2022-10-20T20:51:06.563Z,8.25
2022-10-20T20:53:38.268Z,8.32
2022-10-20T20:56:13.111Z,7.70
2022-10-20T20:58:45.276Z,8.60
2022-10-20T21:01:18.164Z,8.35
2022-10-20T21:03:45.977Z,14.00
2022-10-20T21:06:15.348Z,8.20
2022-10-20T21:08:44.256Z,7.95
2022-10-20T21:11:14.203Z,7.72
2022-10-20T21:13:41.866Z,9.37
2022-10-20T21:16:12.997Z,9.23
2022-10-20T21:18:40.959Z,8.40
2022-10-20T21:21:13.195Z,8.10
2022-10-20T21:23:40.285Z,8.68
2022-10-20T21:26:08.653Z,8.30
2022-10-20T21:28:36.428Z,9.05
2022-10-20T21:31:12.103Z,8.57
2022-10-20T21:33:39.734Z,8.25
2022-10-20T21:36:09.285Z,8.20
2022-10-20T21:38:37.633Z,8.43
2022-10-20T21:41:25.422Z,8.68
2022-10-20T21:43:54.497Z,7.70
2022-10-20T21:46:22.426Z,8.00
2022-10-20T21:48:51.238Z,8.82
2022-10-20T21:51:23.510Z,8.27
2022-10-20T21:53:57.810Z,9.23
2022-10-20T21:56:25.174Z,9.02
2022-10-20T21:58:52.772Z,8.60
2022-10-20T22:01:22.210Z,9.18
2022-10-20T22:03:50.392Z,8.45
2022-10-20T22:06:20.047Z,8.65
2022-10-20T22:08:48.835Z,8.50
2022-10-20T22:11:25.145Z,8.73
2022-10-20T22:13:52.321Z,9.63
2022-10-20T22:16:21.431Z,10.02
2022-10-20T22:18:48.209Z,8.80
2022-10-20T22:21:18.030Z,9.95
2022-10-20T22:23:44.968Z,9.57
2022-10-20T22:26:12.662Z,9.63
2022-10-20T22:28:40.207Z,9.75
2022-10-20T22:31:07.727Z,8.98
2022-10-20T22:33:35.159Z,9.00
2022-10-20T22:36:03.106Z,8.82
2022-10-20T22:38:29.890Z,9.77
2022-10-20T22:41:01.294Z,9.23
2022-10-20T22:43:29.209Z,9.48
2022-10-20T22:45:56.065Z,9.73
2022-10-20T22:48:22.875Z,9.10
2022-10-20T22:50:50.090Z,9.57
2022-10-20T22:53:16.960Z,9.35
2022-10-20T22:55:43.824Z,9.57
2022-10-20T22:58:10.653Z,9.85
2022-10-20T23:00:39.829Z,8.95
2022-10-20T23:03:06.573Z,9.07
2022-10-20T23:05:33.367Z,8.70
2022-10-20T23:08:00.208Z,10.00
2022-10-20T23:10:26.989Z,9.02
2022-10-20T23:12:53.699Z,8.90
2022-10-20T23:15:20.447Z,9.73
2022-10-20T23:17:47.455Z,9.77
2022-10-20T23:20:14.154Z,8.90
2022-10-20T23:22:40.895Z,10.00
2022-10-20T23:25:08.114Z,9.30
2022-10-20T23:27:36.147Z,10.38
2022-10-20T23:30:03.297Z,10.27
2022-10-20T23:32:29.957Z,11.32
2022-10-20T23:34:56.947Z,10.43
2022-10-20T23:37:23.703Z,11.05
2022-10-20T23:39:50.632Z,12.02
2022-10-20T23:42:17.510Z,12.55
2022-10-20T23:44:44.358Z,13.85
2022-10-20T23:47:11.112Z,13.30
2022-10-20T23:49:37.802Z,13.82
2022-10-20T23:52:04.746Z,14.85
2022-10-20T23:54:31.386Z,14.75
2022-10-20T23:56:58.112Z,13.35
2022-10-20T23:59:25.259Z,13.80
